Airport Information

KBFI - Boeing Fld King Co Intl Airport

KBFI 251853Z VRB04KT 10SM SCT020 BKN030 BKN080 16/13 A3006 RMK AO2 RAB29E51 SLP180 P0002 T01610133


  • General Information

  • Coordinates: N 47°31'48"/ W 122°18'7"
  • Location: N/A
  • Surveyed Elevation: 21 MSL

Operations

Flow Name Active Runways Conditions
South Flow Landing: 13R/13L
Departing: 13R/13L
Wind Direction: 040-220°
Wind Speed: <5 or CALM
North Flow Landing: 31L/31R
Departing: 31L/31R
Wind Direction: 221-039°
Wind Speed: ≥6

Green background denotes normal operations.


Common Frequencies

Callsign Frequency Position Name
BFI_DEL 132.400 Boeing Delivery
BFI_GND 121.900 Boeing Ground
BFR_TWR 118.300 Boeing Tower

More at the Document Center


Charts

Under Construction
Name Description Cycle
CBAIN ONE Page 1 1803
KENT EIGHT Page 1 | Page 2 1803
NEEDLE ONE Page 1 1803
NRVNA ONE Page 1 1803
Name Description Cycle
CHINS THREE Page 1 | Page 2 1803
EPHRATA EIGHT Page 1 1803
GLASR ONE Page 1 | Page 2 1803
JAWBN SIX Page 1 1803
OLYMPIA TWO Page 1 | Page 2 1803